Time;durP1;ratioP1;P1;durP2;ratioP2;P2;SDS_P1;SDS_P2;PMS_P1;PMS_P2;Temp;Humidity;BMP_temperature;BMP_pressure;BME280_temperature;BME280_humidity;BME280_pressure;Samples;Min_cycle;Max_cycle;Signal;HPM_P1;HPM_P2
2023/10/25 00:00:13;;;;;;;21.70;8.18;;;;;;;7.25;100.00;100087.28;5095328;28;20016;-64
2023/10/25 00:02:38;;;;;;;23.95;8.75;;;;;;;7.20;100.00;100082.84;5095175;28;20036;-64
2023/10/25 00:05:04;;;;;;;22.08;8.98;;;;;;;7.20;100.00;100077.59;5095464;28;20446;-64
2023/10/25 00:07:30;;;;;;;22.15;8.85;;;;;;;7.19;100.00;100081.97;5095305;28;20032;-65
2023/10/25 00:09:55;;;;;;;23.30;9.45;;;;;;;7.19;100.00;100079.34;5076975;28;20478;-64
2023/10/25 00:12:21;;;;;;;23.83;9.85;;;;;;;7.15;100.00;100069.69;5095352;28;20035;-64
2023/10/25 00:14:46;;;;;;;22.48;9.68;;;;;;;7.08;100.00;100078.41;5095061;28;20058;-64
2023/10/25 00:17:12;;;;;;;21.83;9.82;;;;;;;7.00;100.00;100070.44;5094888;28;20450;-64
2023/10/25 00:19:37;;;;;;;23.35;10.00;;;;;;;6.95;100.00;100070.44;5095573;28;20043;-64
2023/10/25 00:22:02;;;;;;;23.50;9.88;;;;;;;6.90;100.00;100060.75;5094939;28;20035;-66
2023/10/25 00:24:28;;;;;;;24.02;10.15;;;;;;;6.87;100.00;100063.38;5094944;28;20025;-64
2023/10/25 00:26:53;;;;;;;22.65;9.88;;;;;;;6.86;100.00;100061.59;5076977;28;20039;-64
2023/10/25 00:29:19;;;;;;;25.02;10.25;;;;;;;6.83;100.00;100056.31;5094822;28;20020;-64
2023/10/25 00:31:45;;;;;;;22.65;9.80;;;;;;;6.77;100.00;100067.66;5094998;28;20509;-64
2023/10/25 00:34:10;;;;;;;22.40;10.13;;;;;;;6.73;100.00;100061.53;5094467;28;20040;-64
2023/10/25 00:36:36;;;;;;;24.27;9.65;;;;;;;6.71;100.00;100062.38;5090593;28;20035;-64
2023/10/25 00:39:01;;;;;;;22.80;9.60;;;;;;;6.72;100.00;100072.88;5094874;28;20031;-64
2023/10/25 00:41:26;;;;;;;23.13;9.98;;;;;;;6.69;100.00;100072.00;5094592;28;20035;-64
2023/10/25 00:43:53;;;;;;;22.45;9.73;;;;;;;6.66;100.00;100070.22;5094545;28;20039;-65
2023/10/25 00:46:24;;;;;;;21.25;8.85;;;;;;;6.62;100.00;100071.91;5094846;28;20082;-64
2023/10/25 00:48:53;;;;;;;22.67;8.98;;;;;;;6.60;100.00;100071.03;5094217;28;20048;-65
2023/10/25 00:51:21;;;;;;;21.08;8.73;;;;;;;6.58;100.00;100071.88;5094322;28;20043;-65
2023/10/25 00:54:00;;;;;;;22.58;8.98;;;;;;;6.57;100.00;100072.78;5094512;28;20024;-64
2023/10/25 00:56:27;;;;;;;20.88;8.65;;;;;;;6.55;100.00;100072.78;5094333;28;20081;-65
2023/10/25 00:58:54;;;;;;;21.83;9.05;;;;;;;6.55;100.00;100064.00;5094212;28;20024;-65
2023/10/25 01:01:22;;;;;;;20.77;8.65;;;;;;;6.59;100.00;100052.66;5094349;28;20099;-68
2023/10/25 01:03:49;;;;;;;21.38;8.40;;;;;;;6.60;100.00;100055.28;5094303;28;20441;-70
2023/10/25 01:06:15;;;;;;;21.27;8.27;;;;;;;6.57;100.00;100050.00;5094089;28;20028;-65
2023/10/25 01:08:41;;;;;;;21.42;8.27;;;;;;;6.56;100.00;100056.13;5094076;28;20024;-68
2023/10/25 01:11:06;;;;;;;20.80;7.70;;;;;;;6.57;100.00;100052.63;5094199;28;20490;-70
2023/10/25 01:13:32;;;;;;;23.35;8.23;;;;;;;6.56;100.00;100048.25;5093949;28;20063;-70
2023/10/25 01:15:57;;;;;;;21.05;7.65;;;;;;;6.54;100.00;100050.00;5093802;28;20107;-69
2023/10/25 01:18:26;;;;;;;21.95;7.88;;;;;;;6.54;100.00;100041.22;5075855;28;20063;-68
2023/10/25 01:20:51;;;;;;;20.00;7.95;;;;;;;6.49;100.00;100046.44;5093725;28;20197;-69
2023/10/25 01:23:16;;;;;;;20.60;7.55;;;;;;;6.55;100.00;100045.59;5093860;28;20032;-69
2023/10/25 01:25:42;;;;;;;21.17;7.68;;;;;;;6.55;100.00;100043.88;5094010;28;20017;-67
2023/10/25 01:28:08;;;;;;;22.30;7.63;;;;;;;6.60;100.00;100036.03;5093644;28;20020;-68
2023/10/25 01:30:34;;;;;;;19.58;7.10;;;;;;;6.55;100.00;100037.72;5094116;28;20086;-68
2023/10/25 01:32:59;;;;;;;22.30;7.65;;;;;;;6.55;100.00;100019.34;5093648;28;20027;-69
2023/10/25 01:35:25;;;;;;;21.52;7.18;;;;;;;6.55;100.00;100016.72;5093613;28;20115;-69
2023/10/25 01:37:51;;;;;;;20.65;7.15;;;;;;;6.53;100.00;100011.47;5093432;28;20108;-68
2023/10/25 01:40:16;;;;;;;20.90;7.15;;;;;;;6.53;100.00;100011.47;5093659;28;20032;-69
2023/10/25 01:42:43;;;;;;;19.80;7.32;;;;;;;6.54;100.00;100007.97;5075217;28;20122;-69
2023/10/25 01:45:08;;;;;;;20.58;7.18;;;;;;;6.58;100.00;100001.88;5093377;28;20032;-66
2023/10/25 01:47:34;;;;;;;21.02;6.97;;;;;;;6.61;100.00;100001.91;5092601;28;20116;-64
2023/10/25 01:50:00;;;;;;;18.80;6.60;;;;;;;6.61;100.00;99999.28;5093228;28;20078;-65
2023/10/25 01:52:25;;;;;;;20.05;7.03;;;;;;;6.60;100.00;100001.91;5075228;28;20040;-64
2023/10/25 01:54:50;;;;;;;20.17;7.00;;;;;;;6.63;100.00;99999.28;5093185;28;20474;-64
2023/10/25 01:57:19;;;;;;;22.67;6.95;;;;;;;6.66;100.00;99995.81;5093019;28;20036;-64
2023/10/25 01:59:45;;;;;;;21.05;6.78;;;;;;;6.72;100.00;99990.59;5093282;28;20036;-64
2023/10/25 02:02:11;;;;;;;18.98;6.88;;;;;;;6.76;100.00;99989.75;5093060;28;20032;-64
2023/10/25 02:04:36;;;;;;;20.05;6.55;;;;;;;6.77;100.00;99983.59;5093181;28;20065;-64
2023/10/25 02:07:02;;;;;;;19.00;6.68;;;;;;;6.80;100.00;99989.75;5093193;28;20126;-64
2023/10/25 02:09:31;;;;;;;18.90;6.45;;;;;;;6.79;100.00;99984.50;5092956;28;20102;-64
2023/10/25 02:11:56;;;;;;;20.80;6.13;;;;;;;6.81;100.00;99985.38;5092870;28;20040;-64
2023/10/25 02:14:22;;;;;;;20.33;6.30;;;;;;;6.86;100.00;99988.03;5093074;28;20363;-64
2023/10/25 02:16:47;;;;;;;18.60;5.93;;;;;;;6.83;100.00;99973.16;5092662;28;20032;-64
2023/10/25 02:19:14;;;;;;;20.08;6.10;;;;;;;6.83;100.00;99977.50;5092739;28;20126;-64
2023/10/25 02:21:40;;;;;;;20.20;6.25;;;;;;;6.83;100.00;99978.41;5092947;28;20477;-64
2023/10/25 02:24:05;;;;;;;18.73;5.90;;;;;;;6.86;100.00;99961.75;5092975;28;20115;-64
2023/10/25 02:26:31;;;;;;;18.88;5.70;;;;;;;6.88;100.00;99966.16;5092759;28;20036;-64
2023/10/25 02:28:57;;;;;;;19.75;5.57;;;;;;;6.90;100.00;99959.19;5092773;28;20098;-64
2023/10/25 02:31:22;;;;;;;19.17;5.50;;;;;;;6.94;100.00;99955.66;5092657;28;20453;-64
2023/10/25 02:33:47;;;;;;;19.83;5.75;;;;;;;6.97;100.00;99950.47;5092864;28;20489;-65
2023/10/25 02:36:13;;;;;;;18.25;5.30;;;;;;;7.00;100.00;99953.97;5092659;28;20474;-70
2023/10/25 02:38:38;;;;;;;17.83;5.57;;;;;;;7.02;100.00;99949.56;5092653;28;20115;-65
2023/10/25 02:41:04;;;;;;;18.35;5.60;;;;;;;6.96;100.00;99943.44;5092533;28;20039;-64
2023/10/25 02:43:29;;;;;;;17.50;5.60;;;;;;;6.95;100.00;99943.44;5092754;28;20032;-65
2023/10/25 02:46:02;;;;;;;18.20;5.70;;;;;;;6.95;100.00;99946.06;5092499;28;20024;-65
2023/10/25 02:48:28;;;;;;;19.10;5.60;;;;;;;6.96;100.00;99938.19;5092148;28;20329;-65
2023/10/25 02:50:53;;;;;;;19.73;5.45;;;;;;;6.96;100.00;99934.66;5092658;28;20047;-65
2023/10/25 02:53:18;;;;;;;20.88;5.90;;;;;;;6.92;100.00;99928.53;5092578;28;20032;-65
2023/10/25 02:55:47;;;;;;;19.80;5.63;;;;;;;6.93;100.00;99927.66;5092502;28;20063;-65
2023/10/25 02:58:12;;;;;;;17.15;5.22;;;;;;;6.94;100.00;99931.16;5093372;28;20390;-70
2023/10/25 03:00:38;;;;;;;19.48;5.68;;;;;;;6.93;100.00;99924.13;5096532;28;20080;-69
2023/10/25 03:03:03;;;;;;;18.83;5.40;;;;;;;7.01;100.00;99914.53;5096531;28;20032;-70
2023/10/25 03:05:28;;;;;;;20.77;5.32;;;;;;;7.02;100.00;99918.03;5096418;28;20036;-65
2023/10/25 03:07:54;;;;;;;20.55;5.45;;;;;;;7.03;100.00;99914.56;5096499;28;20036;-66
2023/10/25 03:10:21;;;;;;;17.52;5.40;;;;;;;7.01;100.00;99911.91;5096578;28;20438;-67
2023/10/25 03:12:46;;;;;;;17.65;5.43;;;;;;;7.05;100.00;99900.56;5096166;28;20103;-67
2023/10/25 03:15:11;;;;;;;18.67;5.43;;;;;;;7.07;100.00;99905.81;5096227;28;20114;-70
2023/10/25 03:17:37;;;;;;;17.67;5.22;;;;;;;7.07;100.00;99901.41;5096292;28;20386;-64
2023/10/25 03:20:04;;;;;;;18.67;5.20;;;;;;;7.09;100.00;99896.16;5095991;28;20394;-65
2023/10/25 03:22:29;;;;;;;18.83;5.63;;;;;;;7.08;100.00;99895.31;5096142;28;20148;-65
2023/10/25 03:24:56;;;;;;;20.13;5.43;;;;;;;7.09;100.00;99891.81;5096556;28;20028;-64
2023/10/25 03:27:21;;;;;;;18.88;5.25;;;;;;;7.10;100.00;99887.41;5095987;28;20035;-65
2023/10/25 03:29:46;;;;;;;19.65;5.43;;;;;;;7.12;100.00;99885.66;5095850;28;20110;-66
2023/10/25 03:32:12;;;;;;;18.63;5.60;;;;;;;7.12;100.00;99880.41;5096114;28;20476;-64
2023/10/25 03:34:37;;;;;;;20.33;5.60;;;;;;;7.13;100.00;99888.28;5091672;28;20024;-64
2023/10/25 03:37:03;;;;;;;18.77;5.55;;;;;;;7.15;100.00;99885.69;5095597;28;20454;-64
2023/10/25 03:39:28;;;;;;;19.63;5.60;;;;;;;7.13;100.00;99883.03;5096002;28;20478;-64
2023/10/25 03:41:54;;;;;;;21.17;5.75;;;;;;;7.17;100.00;99883.94;5095991;28;20097;-64
2023/10/25 03:44:19;;;;;;;17.60;5.72;;;;;;;7.17;100.00;99881.31;5095581;28;20024;-64
2023/10/25 03:46:45;;;;;;;19.30;5.70;;;;;;;7.18;100.00;99876.91;5095750;28;20067;-65
2023/10/25 03:49:10;;;;;;;17.52;5.68;;;;;;;7.20;100.00;99877.81;5095528;28;20036;-65
2023/10/25 03:51:36;;;;;;;19.08;5.65;;;;;;;7.22;100.00;99873.44;5095627;28;20115;-65
2023/10/25 03:54:01;;;;;;;18.23;5.30;;;;;;;7.25;100.00;99876.97;5095652;28;20034;-64
2023/10/25 03:56:27;;;;;;;18.60;5.50;;;;;;;7.25;100.00;99866.44;5095234;28;20473;-64
2023/10/25 03:58:52;;;;;;;18.85;5.22;;;;;;;7.29;100.00;99868.19;5095653;28;20020;-65
2023/10/25 04:01:17;;;;;;;17.63;5.55;;;;;;;7.31;100.00;99863.81;5095356;28;20024;-64
2023/10/25 04:03:43;;;;;;;19.30;5.30;;;;;;;7.33;100.00;99864.69;5095359;28;20028;-64
2023/10/25 04:06:08;;;;;;;18.02;5.30;;;;;;;7.35;100.00;99867.31;5095359;28;20062;-64
2023/10/25 04:08:34;;;;;;;20.20;5.35;;;;;;;7.37;100.00;99867.31;5076853;28;20034;-64
2023/10/25 04:11:00;;;;;;;17.83;5.20;;;;;;;7.40;100.00;99864.72;5094940;28;20035;-64
2023/10/25 04:13:26;;;;;;;20.15;5.40;;;;;;;7.42;100.00;99861.19;5095385;28;20020;-64
2023/10/25 04:16:02;;;;;;;19.02;5.90;;;;;;;7.45;100.00;99863.84;5095304;28;20297;-64
2023/10/25 04:18:30;;;;;;;17.92;5.40;;;;;;;7.49;100.00;99856.84;5094971;28;20028;-64
2023/10/25 04:20:57;;;;;;;18.83;5.70;;;;;;;7.51;100.00;99857.72;5095066;28;20061;-64
2023/10/25 04:23:24;;;;;;;19.85;5.93;;;;;;;7.55;100.00;99863.88;5095331;28;20024;-64
2023/10/25 04:25:49;;;;;;;18.67;5.68;;;;;;;7.55;100.00;99862.09;5094803;28;20028;-64
2023/10/25 04:28:16;;;;;;;18.52;5.50;;;;;;;7.56;100.00;99855.06;5095054;28;20020;-64
2023/10/25 04:30:42;;;;;;;20.65;6.07;;;;;;;7.56;100.00;99845.44;5094809;28;20156;-64
2023/10/25 04:33:08;;;;;;;18.05;6.18;;;;;;;7.56;100.00;99845.44;5090630;28;20028;-64
2023/10/25 04:35:34;;;;;;;21.58;6.25;;;;;;;7.56;100.00;99850.72;5094828;28;20025;-64
2023/10/25 04:37:59;;;;;;;20.27;6.05;;;;;;;7.58;100.00;99841.06;5094816;28;20077;-64
2023/10/25 04:40:24;;;;;;;21.73;6.25;;;;;;;7.60;100.00;99836.69;5094632;28;20393;-64
2023/10/25 04:42:50;;;;;;;19.48;5.80;;;;;;;7.64;100.00;99840.19;5076630;28;20036;-65
2023/10/25 04:45:16;;;;;;;20.65;5.80;;;;;;;7.65;100.00;99834.91;5076322;28;20024;-64
2023/10/25 04:47:42;;;;;;;18.52;5.93;;;;;;;7.71;100.00;99825.28;5094218;28;20123;-65
2023/10/25 04:50:08;;;;;;;18.77;5.90;;;;;;;7.71;100.00;99827.94;5076594;28;20115;-66
2023/10/25 04:52:33;;;;;;;18.33;5.40;;;;;;;7.71;100.00;99817.41;5094237;28;20028;-70
2023/10/25 04:54:59;;;;;;;20.77;5.80;;;;;;;7.74;100.00;99820.03;5094558;28;20078;-65
2023/10/25 04:57:24;;;;;;;21.55;6.25;;;;;;;7.74;100.00;99814.75;5094286;28;20031;-69
2023/10/25 04:59:50;;;;;;;19.92;6.03;;;;;;;7.73;100.00;99810.38;5094350;28;20093;-65
2023/10/25 05:02:16;;;;;;;19.55;5.88;;;;;;;7.72;100.00;99808.59;5094233;28;20078;-70
2023/10/25 05:04:41;;;;;;;19.65;6.68;;;;;;;7.70;100.00;99802.47;5094246;28;20104;-69
2023/10/25 05:07:08;;;;;;;18.67;5.60;;;;;;;7.72;100.00;99796.34;5093997;28;20040;-69
2023/10/25 05:09:34;;;;;;;20.95;5.60;;;;;;;7.73;100.00;99791.97;5093853;28;20482;-69
2023/10/25 05:12:03;;;;;;;18.70;5.15;;;;;;;7.70;100.00;99789.34;5094464;28;20089;-70
2023/10/25 05:14:30;;;;;;;19.27;5.50;;;;;;;7.70;100.00;99797.22;5093790;28;20031;-69
2023/10/25 05:16:55;;;;;;;20.08;5.60;;;;;;;7.69;100.00;99777.94;5093671;28;20028;-71
2023/10/25 05:19:21;;;;;;;18.13;5.57;;;;;;;7.68;100.00;99770.91;5086481;28;20133;-69
2023/10/25 05:21:49;;;;;;;18.85;5.75;;;;;;;7.70;100.00;99779.69;5092270;28;20039;-69
2023/10/25 05:24:16;;;;;;;20.75;5.90;;;;;;;7.69;100.00;99775.31;5093359;28;20062;-71
2023/10/25 05:26:41;;;;;;;20.23;7.18;;;;;;;7.67;100.00;99770.06;5075103;28;20036;-69
2023/10/25 05:29:07;;;;;;;19.13;5.70;;;;;;;7.66;100.00;99765.66;5093206;28;20024;-69
2023/10/25 05:31:34;;;;;;;17.95;5.40;;;;;;;7.63;100.00;99765.66;5093357;28;20036;-73
2023/10/25 05:34:00;;;;;;;19.10;5.72;;;;;;;7.64;100.00;99763.91;5071031;28;20020;-69
2023/10/25 05:36:26;;;;;;;22.15;5.90;;;;;;;7.62;100.00;99753.38;5092278;28;20043;-70
2023/10/25 05:38:52;;;;;;;19.95;6.15;;;;;;;7.63;100.00;99754.25;5089858;28;20113;-67
2023/10/25 05:41:22;;;;;;;20.65;6.63;;;;;;;7.66;100.00;99749.88;5093480;28;20032;-70
2023/10/25 05:43:59;;;;;;;20.17;6.03;;;;;;;7.67;100.00;99750.75;5093286;28;20036;-67
2023/10/25 05:46:24;;;;;;;20.15;5.93;;;;;;;7.67;100.00;99749.00;5089423;28;20016;-67
2023/10/25 05:48:50;;;;;;;21.50;6.30;;;;;;;7.66;100.00;99746.38;5093240;28;20048;-69
2023/10/25 05:51:15;;;;;;;18.50;5.90;;;;;;;7.66;100.00;99746.38;5092749;28;20032;-68
2023/10/25 05:53:41;;;;;;;19.70;6.30;;;;;;;7.65;100.00;99739.38;5075342;28;20081;-65
2023/10/25 05:56:07;;;;;;;19.40;6.00;;;;;;;7.63;100.00;99736.72;5093323;28;20024;-67
2023/10/25 05:58:32;;;;;;;18.95;6.07;;;;;;;7.65;100.00;99737.59;5093101;28;20035;-67
2023/10/25 06:01:01;;;;;;;20.30;6.43;;;;;;;7.66;100.00;99742.00;5092840;28;20463;-67
2023/10/25 06:03:28;;;;;;;21.60;6.40;;;;;;;7.63;100.00;99726.22;5093061;28;20031;-68
2023/10/25 06:05:56;;;;;;;19.77;6.38;;;;;;;7.64;100.00;99737.59;5092763;28;20024;-66
2023/10/25 06:08:21;;;;;;;18.20;6.07;;;;;;;7.64;100.00;99738.47;5087213;28;20036;-67
2023/10/25 06:10:48;;;;;;;20.63;6.20;;;;;;;7.63;100.00;99734.09;5092968;28;20025;-65
2023/10/25 06:13:14;;;;;;;18.38;5.80;;;;;;;7.64;100.00;99733.19;5092749;28;20031;-66
2023/10/25 06:15:40;;;;;;;19.52;5.90;;;;;;;7.66;100.00;99735.88;5092499;28;20382;-68
2023/10/25 06:18:07;;;;;;;19.33;6.07;;;;;;;7.67;100.00;99730.59;5092670;28;20031;-66
2023/10/25 06:20:34;;;;;;;18.42;5.72;;;;;;;7.68;100.00;99729.69;5092533;28;20020;-66
2023/10/25 06:22:59;;;;;;;18.67;5.60;;;;;;;7.70;100.00;99715.69;5074437;28;20040;-67
2023/10/25 06:25:27;;;;;;;16.58;5.53;;;;;;;7.72;100.00;99719.16;5074860;28;20432;-69
2023/10/25 06:27:52;;;;;;;19.02;5.93;;;;;;;7.73;100.00;99715.66;5074301;28;20043;-67
2023/10/25 06:30:18;;;;;;;19.02;5.72;;;;;;;7.75;100.00;99711.28;5057515;28;20487;-66
2023/10/25 06:32:43;;;;;;;18.77;5.97;;;;;;;7.74;100.00;99704.28;5057593;28;20031;-67
2023/10/25 06:35:09;;;;;;;19.38;5.85;;;;;;;7.77;100.00;99701.63;5092297;28;20024;-67
2023/10/25 06:37:35;;;;;;;17.33;5.82;;;;;;;7.78;100.00;99692.88;5092220;28;20036;-67
2023/10/25 06:40:00;;;;;;;18.98;5.97;;;;;;;7.81;100.00;99698.97;5092467;28;20013;-67
2023/10/25 06:42:26;;;;;;;16.90;5.88;;;;;;;7.84;100.00;99690.22;5088395;28;20068;-68
2023/10/25 06:44:51;;;;;;;19.20;6.25;;;;;;;7.84;100.00;99692.84;5092749;28;20068;-71
2023/10/25 06:47:17;;;;;;;20.38;6.10;;;;;;;7.84;100.00;99692.84;5092062;28;20044;-70
2023/10/25 06:49:42;;;;;;;18.15;5.68;;;;;;;7.85;100.00;99679.69;5074629;28;20032;-69
2023/10/25 07:30:25;;;;;;;15.55;5.15;;;;;;;8.06;100.00;99641.00;5110383;27;20407;-70
2023/10/25 07:32:50;;;;;;;14.73;5.07;;;;;;;8.05;100.00;99633.13;5098951;28;20044;-70
2023/10/25 07:35:15;;;;;;;16.27;5.15;;;;;;;8.03;100.00;99627.84;5094334;28;20036;-71
2023/10/25 07:37:41;;;;;;;16.65;5.40;;;;;;;8.03;100.00;99634.00;5100835;28;20027;-70
2023/10/25 07:40:07;;;;;;;16.83;5.30;;;;;;;8.05;100.00;99625.22;5098157;28;20071;-71
2023/10/25 07:42:32;;;;;;;18.48;5.20;;;;;;;8.08;100.00;99625.19;5101459;28;20110;-72
2023/10/25 07:44:58;;;;;;;18.27;5.40;;;;;;;8.12;100.00;99611.16;5098680;28;20056;-72
2023/10/25 07:47:23;;;;;;;17.75;5.70;;;;;;;8.15;100.00;99605.84;5100883;28;20614;-72
2023/10/25 07:49:49;;;;;;;17.42;5.60;;;;;;;8.24;100.00;99603.16;5099584;28;20040;-71
2023/10/25 07:52:16;;;;;;;19.45;5.82;;;;;;;8.30;100.00;99603.16;5099450;28;20093;-71
2023/10/25 07:54:41;;;;;;;18.20;5.40;;;;;;;8.39;100.00;99604.84;5099263;28;20089;-72
2023/10/25 07:57:07;;;;;;;17.65;5.55;;;;;;;8.43;100.00;99598.69;5099426;28;20040;-71
2023/10/25 07:59:32;;;;;;;18.65;5.35;;;;;;;8.49;100.00;99581.97;5094857;28;20086;-71
2023/10/25 08:01:57;;;;;;;17.77;5.25;;;;;;;8.54;100.00;99581.06;5101138;28;20044;-71
2023/10/25 08:04:23;;;;;;;18.48;5.50;;;;;;;8.55;100.00;99571.41;5098133;28;20099;-71
2023/10/25 08:06:48;;;;;;;20.00;5.95;;;;;;;8.60;100.00;99566.97;5100699;28;20032;-72
2023/10/25 08:09:14;;;;;;;18.42;5.80;;;;;;;8.63;100.00;99568.72;5098299;28;20106;-72
2023/10/25 08:11:39;;;;;;;17.38;5.65;;;;;;;8.63;100.00;99574.84;5099527;28;20036;-72
2023/10/25 08:14:05;;;;;;;18.70;5.80;;;;;;;8.64;100.00;99568.69;5095840;28;20484;-70
2023/10/25 08:16:31;;;;;;;17.02;5.68;;;;;;;8.65;100.00;99561.66;5097770;28;20024;-72
2023/10/25 08:18:56;;;;;;;20.05;6.00;;;;;;;8.70;100.00;99552.84;5098701;28;20036;-72
2023/10/25 08:21:22;;;;;;;17.98;6.00;;;;;;;8.76;100.00;99553.69;5099253;28;20059;-73
2023/10/25 08:23:51;;;;;;;18.13;5.95;;;;;;;8.84;100.00;99552.72;5090507;28;20493;-72
2023/10/25 08:26:18;;;;;;;18.52;6.18;;;;;;;8.90;100.00;99547.38;5090166;28;20028;-72
2023/10/25 08:28:43;;;;;;;20.80;6.25;;;;;;;8.96;100.00;99543.81;5087601;28;20121;-72
2023/10/25 08:31:13;;;;;;;15.68;5.40;;;;;;;8.96;100.00;99538.56;5080322;28;20169;-72
2023/10/25 08:33:39;;;;;;;17.30;5.82;;;;;;;8.99;100.00;99538.53;5077199;28;20063;-72
2023/10/25 08:36:05;;;;;;;18.48;5.85;;;;;;;9.02;100.00;99540.25;5077270;28;20052;-72
2023/10/25 08:38:30;;;;;;;16.70;5.65;;;;;;;9.01;100.00;99531.50;5079152;28;20463;-72
2023/10/25 08:41:06;;;;;;;16.88;5.50;;;;;;;8.99;100.00;99522.69;5079134;28;20035;-71
2023/10/25 08:43:33;;;;;;;16.67;5.40;;;;;;;8.95;100.00;99512.22;5075796;28;20378;-72
2023/10/25 08:45:58;;;;;;;17.52;5.60;;;;;;;8.96;100.00;99508.69;5084506;28;20046;-68
2023/10/25 08:48:25;;;;;;;17.38;5.60;;;;;;;8.93;100.00;99504.31;5083756;28;20036;-68
2023/10/25 08:50:50;;;;;;;17.60;5.60;;;;;;;8.92;100.00;99507.84;5085302;28;20060;-70
2023/10/25 08:53:22;;;;;;;17.40;5.47;;;;;;;8.94;100.00;99507.81;5084904;28;20121;-69
2023/10/25 08:55:50;;;;;;;18.53;5.70;;;;;;;8.93;100.00;99503.44;5085155;28;20025;-70
2023/10/25 08:58:17;;;;;;;18.10;5.53;;;;;;;8.92;100.00;99506.97;5085279;28;20040;-69
2023/10/25 09:00:42;;;;;;;18.48;6.05;;;;;;;8.94;100.00;99490.25;5081836;28;20313;-66
2023/10/25 09:03:07;;;;;;;33.05;8.48;;;;;;;8.94;100.00;99492.00;5081302;28;20040;-71
2023/10/25 09:05:41;;;;;;;60.17;12.23;;;;;;;8.96;100.00;99488.47;5084053;28;20029;-70
2023/10/25 09:08:16;;;;;;;48.50;11.38;;;;;;;8.93;100.00;99488.50;5085779;28;20083;-68
2023/10/25 09:10:41;;;;;;;31.50;8.05;;;;;;;8.90;100.00;99483.28;5082830;28;20032;-72
2023/10/25 09:13:13;;;;;;;17.40;5.50;;;;;;;8.85;100.00;99483.31;5085752;28;20606;-71
2023/10/25 09:15:39;;;;;;;17.73;5.43;;;;;;;8.83;100.00;99487.72;5082920;28;20033;-71
2023/10/25 09:18:04;;;;;;;16.85;5.32;;;;;;;8.80;100.00;99482.47;5086001;28;20104;-70
2023/10/25 09:20:29;;;;;;;17.83;5.78;;;;;;;8.78;100.00;99478.13;5083466;28;20031;-68
2023/10/25 09:23:11;;;;;;;18.25;5.93;;;;;;;8.80;100.00;99471.09;5084865;28;20463;-67
2023/10/25 09:25:37;;;;;;;18.38;6.18;;;;;;;8.82;100.00;99469.28;5078743;28;20028;-68
2023/10/25 09:28:03;;;;;;;18.05;6.60;;;;;;;8.85;100.00;99482.44;5082980;28;20135;-68
2023/10/25 09:30:30;;;;;;;19.15;6.78;;;;;;;8.80;100.00;99486.91;5078390;28;20053;-70
2023/10/25 09:32:57;;;;;;;20.27;7.03;;;;;;;8.72;100.00;99473.78;5085443;28;20063;-69
2023/10/25 09:35:22;;;;;;;19.15;7.10;;;;;;;8.71;100.00;99458.88;5083143;28;20059;-69
2023/10/25 09:37:49;;;;;;;18.63;7.28;;;;;;;8.71;100.00;99472.91;5083179;28;20434;-69
2023/10/25 09:40:14;;;;;;;19.45;7.85;;;;;;;8.69;100.00;99458.91;5084430;28;20036;-69
2023/10/25 09:42:45;;;;;;;19.88;8.02;;;;;;;8.66;100.00;99453.63;5082986;28;20032;-69
2023/10/25 09:45:15;;;;;;;20.55;8.00;;;;;;;8.67;100.00;99449.25;5084240;28;20021;-69
2023/10/25 09:47:45;;;;;;;21.65;8.18;;;;;;;8.66;100.00;99448.34;5083694;28;20024;-70
2023/10/25 09:50:21;;;;;;;20.45;8.45;;;;;;;8.61;100.00;99439.66;5084458;28;20450;-69
2023/10/25 09:52:52;;;;;;;20.23;8.45;;;;;;;8.58;100.00;99439.69;5083103;28;20030;-69
2023/10/25 09:55:28;;;;;;;19.98;8.82;;;;;;;8.57;100.00;99437.91;5085021;28;20031;-70
2023/10/25 09:57:54;;;;;;;20.73;8.95;;;;;;;8.55;100.00;99424.78;5077686;28;20413;-70
2023/10/25 10:00:21;;;;;;;22.52;8.85;;;;;;;8.57;100.00;99424.75;5085128;28;20027;-70
2023/10/25 10:03:00;;;;;;;21.15;9.10;;;;;;;8.59;100.00;99422.09;5082791;28;20054;-71
2023/10/25 10:05:34;;;;;;;21.90;9.63;;;;;;;8.56;100.00;99423.00;5078476;28;20390;-70
2023/10/25 10:08:11;;;;;;;23.65;10.40;;;;;;;8.57;100.00;99414.22;5077645;28;20032;-70
2023/10/25 10:10:45;;;;;;;22.55;10.57;;;;;;;8.54;100.00;99403.72;5083951;28;20039;-69
2023/10/25 10:13:15;;;;;;;21.85;9.88;;;;;;;8.56;100.00;99399.28;5083504;28;20089;-70
2023/10/25 10:16:00;;;;;;;21.90;10.20;;;;;;;8.63;100.00;99400.97;5083530;28;20066;-69
2023/10/25 10:18:35;;;;;;;21.52;10.20;;;;;;;8.59;100.00;99388.75;5077826;28;20383;-70
2023/10/25 10:21:05;;;;;;;23.52;10.82;;;;;;;8.59;100.00;99388.75;5078993;28;20025;-69
2023/10/25 10:23:39;;;;;;;22.67;10.65;;;;;;;8.62;100.00;99377.28;5084676;28;20115;-69
2023/10/25 10:26:08;;;;;;;22.35;10.80;;;;;;;8.65;100.00;99371.97;5082377;28;20394;-69
2023/10/25 10:28:43;;;;;;;21.48;10.10;;;;;;;8.66;100.00;99363.19;5083837;28;20059;-69
2023/10/25 10:31:11;;;;;;;21.42;10.35;;;;;;;8.64;100.00;99355.31;5082982;28;20076;-69
2023/10/25 10:33:49;;;;;;;21.98;10.55;;;;;;;8.69;100.00;99347.34;5083957;28;20177;-69
2023/10/25 10:36:30;;;;;;;24.77;10.30;;;;;;;8.68;100.00;99341.22;5083502;28;20024;-71
2023/10/25 10:39:16;;;;;;;21.08;9.77;;;;;;;8.70;100.00;99342.06;5077598;28;20383;-71
2023/10/25 10:41:43;;;;;;;21.75;10.05;;;;;;;8.73;100.00;99342.03;5081620;28;20028;-71
2023/10/25 10:44:08;;;;;;;21.17;9.60;;;;;;;8.77;100.00;99334.97;5082137;28;20032;-71
2023/10/25 10:46:51;;;;;;;20.77;9.18;;;;;;;8.75;100.00;99326.19;5082217;28;20028;-71
2023/10/25 10:49:19;;;;;;;22.27;9.60;;;;;;;8.75;100.00;99335.88;5082122;28;20024;-71
2023/10/25 10:51:45;;;;;;;22.33;10.05;;;;;;;8.78;100.00;99312.13;5083467;28;20075;-71
2023/10/25 10:54:10;;;;;;;20.40;9.10;;;;;;;8.79;100.00;99313.88;5082652;28;20047;-71
2023/10/25 10:56:36;;;;;;;20.02;9.02;;;;;;;8.84;100.00;99307.66;5082316;28;20073;-71
2023/10/25 10:59:01;;;;;;;20.67;9.45;;;;;;;8.82;100.00;99298.88;5083992;28;20035;-71
2023/10/25 11:01:28;;;;;;;20.35;9.00;;;;;;;8.86;100.00;99287.41;5080846;28;20029;-71
2023/10/25 11:03:56;;;;;;;20.45;8.63;;;;;;;8.85;100.00;99282.16;5077228;28;20029;-71
2023/10/25 11:06:24;;;;;;;20.40;8.82;;;;;;;8.86;100.00;99279.50;5084241;28;20035;-71
2023/10/25 11:08:50;;;;;;;20.42;9.07;;;;;;;8.86;100.00;99270.72;5081445;28;20025;-71
2023/10/25 11:11:18;;;;;;;20.40;9.52;;;;;;;8.85;100.00;99274.25;5083521;28;20051;-71
2023/10/25 11:13:44;;;;;;;21.42;9.60;;;;;;;8.85;100.00;99263.72;5077815;28;20044;-71
2023/10/25 11:16:10;;;;;;;20.55;9.00;;;;;;;8.93;100.00;99266.22;5075328;28;20070;-71
2023/10/25 11:18:36;;;;;;;19.55;8.38;;;;;;;8.91;100.00;99260.97;5075570;28;20482;-70
2023/10/25 11:21:02;;;;;;;20.50;8.57;;;;;;;8.89;100.00;99254.88;5071847;28;20064;-69
2023/10/25 11:23:28;;;;;;;19.70;8.43;;;;;;;8.94;100.00;99260.97;5073212;28;20059;-72
2023/10/25 11:25:54;;;;;;;20.15;8.38;;;;;;;8.96;100.00;99248.63;5071150;28;20413;-71
2023/10/25 11:28:20;;;;;;;19.08;7.95;;;;;;;8.98;100.00;99243.34;5082127;28;20031;-71
2023/10/25 11:30:48;;;;;;;20.50;8.38;;;;;;;9.02;100.00;99245.03;5081781;28;20389;-71
2023/10/25 11:33:15;;;;;;;19.85;8.23;;;;;;;9.01;100.00;99240.66;5078677;28;20037;-70
2023/10/25 11:35:42;;;;;;;19.92;8.10;;;;;;;9.05;100.00;99235.31;5079494;28;20036;-70
2023/10/25 11:38:12;;;;;;;21.10;8.82;;;;;;;9.06;100.00;99228.28;5078513;28;20036;-71
2023/10/25 11:40:41;;;;;;;19.15;8.52;;;;;;;9.07;100.00;99222.09;5076940;28;20111;-71
2023/10/25 11:43:07;;;;;;;19.45;8.30;;;;;;;9.06;100.00;99218.59;5076674;28;20027;-71
2023/10/25 11:45:33;;;;;;;19.88;8.20;;;;;;;9.06;100.00;99213.31;5083709;28;20031;-68
2023/10/25 11:47:58;;;;;;;19.88;8.40;;;;;;;9.10;100.00;99208.91;5081536;28;20024;-70
2023/10/25 11:50:24;;;;;;;20.30;8.23;;;;;;;9.15;100.00;99203.53;5082746;28;20036;-67
2023/10/25 11:52:49;;;;;;;20.05;8.15;;;;;;;9.14;100.00;99202.66;5081910;28;20529;-70
2023/10/25 11:55:15;;;;;;;20.75;8.30;;;;;;;9.19;100.00;99194.69;5083655;28;20074;-71
2023/10/25 11:57:42;;;;;;;19.58;8.48;;;;;;;9.25;100.00;99200.72;5080143;28;20115;-73
2023/10/25 12:00:08;;;;;;;19.25;8.23;;;;;;;9.29;100.00;99192.75;5080034;28;20028;-68